PWSweather.com
Personal Weather Stations
Station Observations
W7JKG
Phoenix, AZ 85032-2083

Phoenix, AZ 85032-2083

Lat: 33.645544, Lon: -112.007099

Elevation: 1474

Station Type: Davis Vantage Pro2 Wireless

http://tiggrweather.net/

High Low Average
Temperature 82.7°F28.2°C 67.8°F19.9°C 74.9°F23.8°C
Dew Point 60.9°F16.1°C 50.4°F10.2°C 56.0°F13.3°C
Winds 8.1 mph 13.0 kmh Calm Calm 2.0 mph SSW3.2 kmh SSW
Wind Gusts 10.4 mph16.7 kmh -- 4.0 mph6.4 kmh
Humidity 72% 36% 54%
Pressure 29.98 in1015.2 mb 29.82 in1009.8 mb -
Precipitation 0.00 in0.0 mm - -
Hour Temp Dew Point Humidity Winds Wind Gusts Pressure Precip Precip Rate Daily Precip Total
12:00 AM 73.2°F22.9°C 57.1°F13.9°C 57% Calm Calm 1.2 mph1.9 kmh 29.94 in1013.9 mb - 0.00 in0.0 mm 0.00 in0.0 mm
01:00 AM 72.4°F22.4°C 56.3°F13.5°C 57% Calm Calm 1.2 mph1.9 kmh 29.95 in1014.2 mb - 0.00 in0.0 mm 0.00 in0.0 mm
02:00 AM 70.9°F21.6°C 56.8°F13.8°C 61% Calm Calm -- 29.94 in1013.9 mb - 0.00 in0.0 mm 0.00 in0.0 mm
03:00 AM 70.2°F21.2°C 57.9°F14.4°C 65% Calm Calm -- 29.93 in1013.5 mb - 0.00 in0.0 mm 0.00 in0.0 mm
04:00 AM 69.4°F20.8°C 58.4°F14.7°C 68% Calm Calm -- 29.93 in1013.5 mb - 0.00 in0.0 mm 0.00 in0.0 mm
05:00 AM 68.5°F20.3°C 58.7°F14.8°C 71% Calm Calm -- 29.92 in1013.2 mb - 0.00 in0.0 mm 0.00 in0.0 mm
06:00 AM 67.8°F19.9°C 58.4°F14.7°C 72% Calm Calm -- 29.92 in1013.2 mb - 0.00 in0.0 mm 0.00 in0.0 mm
07:00 AM 67.9°F19.9°C 58.5°F14.7°C 72% Calm Calm -- 29.92 in1013.2 mb - 0.00 in0.0 mm 0.00 in0.0 mm
08:00 AM 70.2°F21.2°C 59.5°F15.3°C 69% 1.2 mph SSE1.9 kmh SSE 3.5 mph5.6 kmh 29.95 in1014.2 mb - 0.00 in0.0 mm 0.00 in0.0 mm
09:00 AM 71.4°F21.9°C 58.6°F14.8°C 64% 4.6 mph ESE7.4 kmh ESE 6.9 mph11.1 kmh 29.97 in1014.9 mb - 0.00 in0.0 mm 0.00 in0.0 mm
10:00 AM 71.1°F21.7°C 60.4°F15.8°C 69% 3.5 mph ESE5.6 kmh ESE 5.8 mph9.3 kmh 29.98 in1015.2 mb - 0.00 in0.0 mm 0.00 in0.0 mm
11:00 AM 73.4°F23.0°C 60.9°F16.1°C 65% 5.8 mph ESE9.3 kmh ESE 9.2 mph14.8 kmh 29.96 in1014.6 mb - 0.00 in0.0 mm 0.00 in0.0 mm
12:00 PM 75.9°F24.4°C 60.5°F15.8°C 59% 1.2 mph E1.9 kmh E 3.5 mph5.6 kmh 29.93 in1013.5 mb - 0.00 in0.0 mm 0.00 in0.0 mm
01:00 PM 78.8°F26.0°C 57.5°F14.2°C 48% 5.8 mph E9.3 kmh E 9.2 mph14.8 kmh 29.90 in1012.5 mb - 0.00 in0.0 mm 0.00 in0.0 mm
02:00 PM 82.1°F27.8°C 54.0°F12.2°C 38% 8.1 mph SSE13.0 kmh SSE 10.4 mph16.7 kmh 29.86 in1011.2 mb - 0.00 in0.0 mm 0.00 in0.0 mm
03:00 PM 81.9°F27.7°C 53.8°F12.1°C 38% 4.6 mph E7.4 kmh E 6.9 mph11.1 kmh 29.83 in1010.2 mb - 0.00 in0.0 mm 0.00 in0.0 mm
04:00 PM 82.7°F28.2°C 53.0°F11.7°C 36% 1.2 mph ESE1.9 kmh ESE 6.9 mph11.1 kmh 29.82 in1009.8 mb - 0.00 in0.0 mm 0.00 in0.0 mm
05:00 PM 82.2°F27.9°C 52.6°F11.4°C 36% 3.5 mph SE5.6 kmh SE 8.1 mph13.0 kmh 29.82 in1009.8 mb - 0.00 in0.0 mm 0.00 in0.0 mm
06:00 PM 80.0°F26.7°C 51.4°F10.8°C 37% 3.5 mph ESE5.6 kmh ESE 4.6 mph7.4 kmh 29.83 in1010.2 mb - 0.00 in0.0 mm 0.00 in0.0 mm
07:00 PM 78.9°F26.1°C 50.4°F10.2°C 37% 5.8 mph E9.3 kmh E 8.1 mph13.0 kmh 29.84 in1010.5 mb - 0.00 in0.0 mm 0.00 in0.0 mm
08:00 PM 77.7°F25.4°C 52.1°F11.2°C 41% 3.5 mph E5.6 kmh E 3.5 mph5.6 kmh 29.85 in1010.8 mb - 0.00 in0.0 mm 0.00 in0.0 mm
09:00 PM 76.3°F24.6°C 52.1°F11.2°C 43% 1.2 mph E1.9 kmh E 2.3 mph3.7 kmh 29.87 in1011.5 mb - 0.00 in0.0 mm 0.00 in0.0 mm
10:00 PM 76.7°F24.8°C 52.5°F11.4°C 43% 3.5 mph SE5.6 kmh SE 4.6 mph7.4 kmh 29.87 in1011.5 mb - 0.00 in0.0 mm 0.00 in0.0 mm
11:00 PM 76.8°F24.9°C 52.0°F11.1°C 42% Calm Calm -- 29.87 in1011.5 mb - 0.00 in0.0 mm 0.00 in0.0 mm